sensor_id;sensor_type;location;lat;lon;timestamp;P1;durP1;ratioP1;P2;durP2;ratioP2
37047;SDS011;23227;48.780;9.210;2023-05-07T15:09:17;7.77;;;2.30;;
37047;SDS011;23227;48.780;9.210;2023-05-07T15:12:20;4.33;;;2.20;;
37047;SDS011;23227;48.780;9.210;2023-05-07T15:15:23;4.38;;;2.33;;
37047;SDS011;23227;48.780;9.210;2023-05-07T15:18:26;6.00;;;1.73;;
37047;SDS011;23227;48.780;9.210;2023-05-07T15:21:29;4.03;;;2.10;;
37047;SDS011;23227;48.780;9.210;2023-05-07T15:24:36;4.77;;;2.70;;
37047;SDS011;23227;48.780;9.210;2023-05-07T15:27:39;5.97;;;3.17;;
37047;SDS011;23227;48.780;9.210;2023-05-07T15:30:42;3.00;;;1.90;;
37047;SDS011;23227;48.780;9.210;2023-05-07T15:33:45;3.37;;;2.30;;
37047;SDS011;23227;48.780;9.210;2023-05-07T15:36:48;2.72;;;1.60;;
37047;SDS011;23227;48.780;9.210;2023-05-07T15:39:53;3.22;;;2.25;;
37047;SDS011;23227;48.780;9.210;2023-05-07T15:42:55;3.73;;;2.17;;
37047;SDS011;23227;48.780;9.210;2023-05-07T15:45:58;4.50;;;2.10;;
37047;SDS011;23227;48.780;9.210;2023-05-07T15:49:02;3.23;;;2.13;;
37047;SDS011;23227;48.780;9.210;2023-05-07T15:55:09;4.43;;;2.47;;
37047;SDS011;23227;48.780;9.210;2023-05-07T15:58:12;3.13;;;2.10;;
37047;SDS011;23227;48.780;9.210;2023-05-07T16:01:15;2.20;;;1.73;;
37047;SDS011;23227;48.780;9.210;2023-05-07T16:04:18;8.48;;;2.78;;
37047;SDS011;23227;48.780;9.210;2023-05-07T16:07:21;4.63;;;2.38;;
37047;SDS011;23227;48.780;9.210;2023-05-07T16:10:26;3.57;;;2.43;;
37047;SDS011;23227;48.780;9.210;2023-05-07T16:13:28;6.63;;;2.13;;
37047;SDS011;23227;48.780;9.210;2023-05-07T16:16:31;3.50;;;2.58;;
37047;SDS011;23227;48.780;9.210;2023-05-07T16:19:35;3.10;;;2.13;;
37047;SDS011;23227;48.780;9.210;2023-05-07T16:22:37;8.82;;;2.60;;
37047;SDS011;23227;48.780;9.210;2023-05-07T16:25:41;5.00;;;2.88;;
37047;SDS011;23227;48.780;9.210;2023-05-07T16:28:44;6.23;;;2.77;;
37047;SDS011;23227;48.780;9.210;2023-05-07T16:31:46;5.00;;;2.78;;
37047;SDS011;23227;48.780;9.210;2023-05-07T16:34:49;6.10;;;3.40;;
37047;SDS011;23227;48.780;9.210;2023-05-07T16:37:52;5.80;;;2.58;;
37047;SDS011;23227;48.780;9.210;2023-05-07T16:40:56;8.70;;;2.60;;
37047;SDS011;23227;48.780;9.210;2023-05-07T16:43:59;5.70;;;3.00;;
37047;SDS011;23227;48.780;9.210;2023-05-07T16:47:02;7.67;;;3.40;;
37047;SDS011;23227;48.780;9.210;2023-05-07T16:50:05;9.35;;;3.83;;
37047;SDS011;23227;48.780;9.210;2023-05-07T16:53:09;7.03;;;3.93;;
37047;SDS011;23227;48.780;9.210;2023-05-07T16:56:14;6.30;;;3.70;;
37047;SDS011;23227;48.780;9.210;2023-05-07T16:59:16;6.07;;;3.30;;
37047;SDS011;23227;48.780;9.210;2023-05-07T17:02:19;5.00;;;3.53;;
37047;SDS011;23227;48.780;9.210;2023-05-07T17:05:22;10.15;;;3.28;;
37047;SDS011;23227;48.780;9.210;2023-05-07T17:08:25;4.75;;;2.83;;
37047;SDS011;23227;48.780;9.210;2023-05-07T17:11:29;6.07;;;3.35;;
37047;SDS011;23227;48.780;9.210;2023-05-07T17:14:34;6.27;;;3.13;;
37047;SDS011;23227;48.780;9.210;2023-05-07T17:17:36;5.45;;;3.45;;
37047;SDS011;23227;48.780;9.210;2023-05-07T17:20:39;4.70;;;3.10;;
37047;SDS011;23227;48.780;9.210;2023-05-07T17:23:42;5.55;;;3.67;;
37047;SDS011;23227;48.780;9.210;2023-05-07T17:26:47;5.75;;;2.80;;
37047;SDS011;23227;48.780;9.210;2023-05-07T17:29:50;3.80;;;2.60;;
37047;SDS011;23227;48.780;9.210;2023-05-07T17:32:54;3.97;;;2.90;;
37047;SDS011;23227;48.780;9.210;2023-05-07T17:36:09;3.77;;;2.90;;
37047;SDS011;23227;48.780;9.210;2023-05-07T17:39:12;4.65;;;2.97;;
37047;SDS011;23227;48.780;9.210;2023-05-07T17:42:16;9.43;;;3.08;;
37047;SDS011;23227;48.780;9.210;2023-05-07T17:45:19;5.60;;;3.10;;
37047;SDS011;23227;48.780;9.210;2023-05-07T17:48:22;9.55;;;3.78;;
37047;SDS011;23227;48.780;9.210;2023-05-07T17:51:25;5.37;;;3.20;;
37047;SDS011;23227;48.780;9.210;2023-05-07T17:54:42;4.70;;;3.27;;
37047;SDS011;23227;48.780;9.210;2023-05-07T17:57:46;7.40;;;3.00;;
37047;SDS011;23227;48.780;9.210;2023-05-07T18:00:49;5.87;;;3.73;;
37047;SDS011;23227;48.780;9.210;2023-05-07T18:03:51;6.38;;;3.75;;
37047;SDS011;23227;48.780;9.210;2023-05-07T18:06:54;6.20;;;2.72;;
37047;SDS011;23227;48.780;9.210;2023-05-07T18:09:58;8.23;;;2.93;;
37047;SDS011;23227;48.780;9.210;2023-05-07T18:13:02;4.75;;;3.38;;
37047;SDS011;23227;48.780;9.210;2023-05-07T18:16:05;6.17;;;3.57;;
37047;SDS011;23227;48.780;9.210;2023-05-07T18:19:08;4.35;;;3.40;;
37047;SDS011;23227;48.780;9.210;2023-05-07T18:22:11;5.60;;;3.07;;
37047;SDS011;23227;48.780;9.210;2023-05-07T18:25:14;5.07;;;3.17;;
37047;SDS011;23227;48.780;9.210;2023-05-07T18:28:18;4.45;;;3.42;;
37047;SDS011;23227;48.780;9.210;2023-05-07T18:31:21;6.73;;;3.63;;
37047;SDS011;23227;48.780;9.210;2023-05-07T18:34:24;4.30;;;3.30;;
37047;SDS011;23227;48.780;9.210;2023-05-07T18:37:27;4.78;;;2.90;;
37047;SDS011;23227;48.780;9.210;2023-05-07T18:40:30;7.22;;;3.60;;
37047;SDS011;23227;48.780;9.210;2023-05-07T18:43:34;5.20;;;3.25;;
37047;SDS011;23227;48.780;9.210;2023-05-07T18:46:36;5.23;;;3.53;;
37047;SDS011;23227;48.780;9.210;2023-05-07T18:49:39;6.53;;;3.35;;
37047;SDS011;23227;48.780;9.210;2023-05-07T18:52:42;5.93;;;3.45;;
37047;SDS011;23227;48.780;9.210;2023-05-07T18:55:47;7.72;;;3.28;;
37047;SDS011;23227;48.780;9.210;2023-05-07T18:58:52;4.93;;;3.70;;
37047;SDS011;23227;48.780;9.210;2023-05-07T19:01:55;6.50;;;3.17;;
37047;SDS011;23227;48.780;9.210;2023-05-07T19:04:57;4.00;;;3.35;;
37047;SDS011;23227;48.780;9.210;2023-05-07T19:08:00;8.63;;;3.85;;
37047;SDS011;23227;48.780;9.210;2023-05-07T19:11:03;6.95;;;3.38;;
37047;SDS011;23227;48.780;9.210;2023-05-07T19:14:06;4.75;;;3.90;;
37047;SDS011;23227;48.780;9.210;2023-05-07T19:17:11;6.87;;;3.70;;
37047;SDS011;23227;48.780;9.210;2023-05-07T19:20:16;6.90;;;3.60;;
37047;SDS011;23227;48.780;9.210;2023-05-07T19:23:18;6.65;;;3.85;;
37047;SDS011;23227;48.780;9.210;2023-05-07T19:26:21;5.38;;;3.42;;
37047;SDS011;23227;48.780;9.210;2023-05-07T19:29:25;3.97;;;3.58;;
37047;SDS011;23227;48.780;9.210;2023-05-07T19:32:28;8.97;;;4.83;;
37047;SDS011;23227;48.780;9.210;2023-05-07T19:35:30;6.80;;;4.20;;
37047;SDS011;23227;48.780;9.210;2023-05-07T19:38:35;7.07;;;4.43;;
37047;SDS011;23227;48.780;9.210;2023-05-07T19:41:38;5.80;;;4.60;;
37047;SDS011;23227;48.780;9.210;2023-05-07T19:44:44;6.47;;;4.80;;
37047;SDS011;23227;48.780;9.210;2023-05-07T19:47:47;6.23;;;4.43;;
37047;SDS011;23227;48.780;9.210;2023-05-07T19:50:50;8.68;;;4.68;;
37047;SDS011;23227;48.780;9.210;2023-05-07T19:53:52;7.32;;;4.32;;
37047;SDS011;23227;48.780;9.210;2023-05-07T19:56:58;5.00;;;4.13;;
37047;SDS011;23227;48.780;9.210;2023-05-07T20:00:02;8.00;;;3.83;;
37047;SDS011;23227;48.780;9.210;2023-05-07T20:03:06;7.37;;;4.07;;
37047;SDS011;23227;48.780;9.210;2023-05-07T20:06:10;5.70;;;4.20;;
37047;SDS011;23227;48.780;9.210;2023-05-07T20:09:13;10.18;;;3.67;;
37047;SDS011;23227;48.780;9.210;2023-05-07T20:12:16;4.40;;;3.10;;
37047;SDS011;23227;48.780;9.210;2023-05-07T20:15:20;6.80;;;3.97;;
37047;SDS011;23227;48.780;9.210;2023-05-07T20:18:23;4.90;;;4.40;;
37047;SDS011;23227;48.780;9.210;2023-05-07T20:21:26;5.80;;;4.03;;
37047;SDS011;23227;48.780;9.210;2023-05-07T20:24:29;4.50;;;3.58;;
37047;SDS011;23227;48.780;9.210;2023-05-07T20:27:32;7.28;;;3.85;;
37047;SDS011;23227;48.780;9.210;2023-05-07T20:30:36;4.50;;;3.75;;
37047;SDS011;23227;48.780;9.210;2023-05-07T20:33:39;7.20;;;3.77;;
37047;SDS011;23227;48.780;9.210;2023-05-07T20:36:42;5.78;;;3.30;;
37047;SDS011;23227;48.780;9.210;2023-05-07T20:39:46;5.60;;;4.43;;
37047;SDS011;23227;48.780;9.210;2023-05-07T20:42:49;4.57;;;3.80;;
37047;SDS011;23227;48.780;9.210;2023-05-07T20:45:58;5.70;;;3.67;;
37047;SDS011;23227;48.780;9.210;2023-05-07T20:49:01;5.33;;;3.80;;
37047;SDS011;23227;48.780;9.210;2023-05-07T20:52:04;5.82;;;3.60;;
37047;SDS011;23227;48.780;9.210;2023-05-07T20:55:07;8.38;;;3.80;;
37047;SDS011;23227;48.780;9.210;2023-05-07T20:58:10;6.72;;;4.32;;
37047;SDS011;23227;48.780;9.210;2023-05-07T21:01:14;6.05;;;3.80;;
37047;SDS011;23227;48.780;9.210;2023-05-07T21:04:17;5.17;;;4.10;;
37047;SDS011;23227;48.780;9.210;2023-05-07T21:07:20;10.23;;;4.53;;
37047;SDS011;23227;48.780;9.210;2023-05-07T21:10:22;7.03;;;4.90;;
37047;SDS011;23227;48.780;9.210;2023-05-07T21:13:25;10.02;;;5.35;;
37047;SDS011;23227;48.780;9.210;2023-05-07T21:16:29;16.90;;;5.57;;
37047;SDS011;23227;48.780;9.210;2023-05-07T21:19:32;8.10;;;5.70;;
37047;SDS011;23227;48.780;9.210;2023-05-07T21:22:35;12.55;;;6.18;;
37047;SDS011;23227;48.780;9.210;2023-05-07T21:25:37;12.02;;;6.13;;
37047;SDS011;23227;48.780;9.210;2023-05-07T21:28:41;8.53;;;6.23;;
37047;SDS011;23227;48.780;9.210;2023-05-07T21:31:45;10.10;;;6.22;;
37047;SDS011;23227;48.780;9.210;2023-05-07T21:34:48;8.30;;;6.63;;
37047;SDS011;23227;48.780;9.210;2023-05-07T21:37:50;12.88;;;6.03;;
37047;SDS011;23227;48.780;9.210;2023-05-07T21:40:53;7.70;;;6.13;;
37047;SDS011;23227;48.780;9.210;2023-05-07T21:43:56;12.73;;;6.25;;
37047;SDS011;23227;48.780;9.210;2023-05-07T21:47:00;13.90;;;6.75;;
37047;SDS011;23227;48.780;9.210;2023-05-07T21:50:02;12.80;;;7.00;;
37047;SDS011;23227;48.780;9.210;2023-05-07T21:53:05;10.60;;;6.53;;
37047;SDS011;23227;48.780;9.210;2023-05-07T21:56:08;9.65;;;6.43;;
37047;SDS011;23227;48.780;9.210;2023-05-07T21:59:10;12.25;;;6.53;;
37047;SDS011;23227;48.780;9.210;2023-05-07T22:02:14;11.30;;;6.47;;
37047;SDS011;23227;48.780;9.210;2023-05-07T22:05:17;11.83;;;6.90;;
37047;SDS011;23227;48.780;9.210;2023-05-07T22:08:20;10.15;;;6.38;;
37047;SDS011;23227;48.780;9.210;2023-05-07T22:11:22;11.95;;;6.88;;
37047;SDS011;23227;48.780;9.210;2023-05-07T22:14:25;9.38;;;6.68;;
37047;SDS011;23227;48.780;9.210;2023-05-07T22:17:29;8.52;;;6.25;;
37047;SDS011;23227;48.780;9.210;2023-05-07T22:20:31;9.70;;;7.47;;
37047;SDS011;23227;48.780;9.210;2023-05-07T22:23:34;8.95;;;5.85;;
37047;SDS011;23227;48.780;9.210;2023-05-07T22:26:37;10.00;;;6.47;;
37047;SDS011;23227;48.780;9.210;2023-05-07T22:29:40;13.05;;;7.05;;
37047;SDS011;23227;48.780;9.210;2023-05-07T22:32:44;10.43;;;7.60;;
37047;SDS011;23227;48.780;9.210;2023-05-07T22:35:46;13.50;;;7.77;;
37047;SDS011;23227;48.780;9.210;2023-05-07T22:38:49;11.85;;;8.13;;
37047;SDS011;23227;48.780;9.210;2023-05-07T22:41:52;13.52;;;8.75;;
37047;SDS011;23227;48.780;9.210;2023-05-07T22:44:54;14.98;;;8.15;;
37047;SDS011;23227;48.780;9.210;2023-05-07T22:47:58;12.45;;;8.25;;
37047;SDS011;23227;48.780;9.210;2023-05-07T22:51:01;11.40;;;7.50;;
37047;SDS011;23227;48.780;9.210;2023-05-07T22:54:04;12.27;;;8.63;;
37047;SDS011;23227;48.780;9.210;2023-05-07T22:57:08;11.03;;;7.80;;
37047;SDS011;23227;48.780;9.210;2023-05-07T23:00:11;13.68;;;9.15;;
37047;SDS011;23227;48.780;9.210;2023-05-07T23:03:16;16.57;;;8.23;;
37047;SDS011;23227;48.780;9.210;2023-05-07T23:06:19;11.43;;;7.43;;
37047;SDS011;23227;48.780;9.210;2023-05-07T23:09:21;13.45;;;9.55;;
37047;SDS011;23227;48.780;9.210;2023-05-07T23:12:24;15.55;;;9.43;;
37047;SDS011;23227;48.780;9.210;2023-05-07T23:15:27;19.73;;;10.57;;
37047;SDS011;23227;48.780;9.210;2023-05-07T23:18:31;14.27;;;8.68;;
37047;SDS011;23227;48.780;9.210;2023-05-07T23:21:33;17.37;;;9.60;;
37047;SDS011;23227;48.780;9.210;2023-05-07T23:24:36;14.60;;;8.98;;
37047;SDS011;23227;48.780;9.210;2023-05-07T23:27:38;17.60;;;9.40;;
37047;SDS011;23227;48.780;9.210;2023-05-07T23:30:41;16.30;;;9.73;;
37047;SDS011;23227;48.780;9.210;2023-05-07T23:33:45;15.07;;;9.35;;
37047;SDS011;23227;48.780;9.210;2023-05-07T23:36:48;13.70;;;8.40;;
37047;SDS011;23227;48.780;9.210;2023-05-07T23:39:53;15.25;;;9.30;;
37047;SDS011;23227;48.780;9.210;2023-05-07T23:42:56;15.07;;;9.23;;
37047;SDS011;23227;48.780;9.210;2023-05-07T23:45:58;12.50;;;9.43;;
37047;SDS011;23227;48.780;9.210;2023-05-07T23:49:04;19.73;;;9.93;;
37047;SDS011;23227;48.780;9.210;2023-05-07T23:52:06;17.83;;;10.17;;
37047;SDS011;23227;48.780;9.210;2023-05-07T23:55:09;17.25;;;10.77;;
37047;SDS011;23227;48.780;9.210;2023-05-07T23:58:11;15.65;;;11.25;;
